createdAt,value
2023-01-21T00:00:32.676Z,95618.4
2023-01-21T00:01:35.209Z,95619.1
2023-01-21T00:02:38.137Z,95621.2
2023-01-21T00:03:40.820Z,95620.9
2023-01-21T00:04:43.185Z,95625.6
2023-01-21T00:05:45.689Z,95620.1
2023-01-21T00:06:48.193Z,95623
2023-01-21T00:07:50.685Z,95622.6
2023-01-21T00:08:53.207Z,95617.5
2023-01-21T00:09:55.712Z,95618.8
2023-01-21T00:10:58.214Z,95620.9
2023-01-21T00:12:00.436Z,95622.6
2023-01-21T00:13:02.925Z,95620.4
2023-01-21T00:14:05.559Z,95623.8
2023-01-21T00:15:07.510Z,95620.8
2023-01-21T00:16:09.881Z,95621
2023-01-21T00:17:12.501Z,95620.6
2023-01-21T00:18:14.912Z,95622.1
2023-01-21T00:19:16.908Z,95620.8
2023-01-21T00:20:20.405Z,95623.1
2023-01-21T00:21:22.366Z,95620.1
2023-01-21T00:22:24.867Z,95622.2
2023-01-21T00:23:27.141Z,95622.5
2023-01-21T00:24:29.408Z,95626.2
2023-01-21T00:25:31.674Z,95622.5
2023-01-21T00:26:33.657Z,95620.1
2023-01-21T00:27:36.164Z,95621.7
2023-01-21T00:28:38.378Z,95621.3
2023-01-21T00:29:40.584Z,95620.3
2023-01-21T00:30:43.537Z,95620.8
2023-01-21T00:31:46.601Z,95624.4
2023-01-21T00:32:49.079Z,95619.2
2023-01-21T00:33:51.667Z,95620.6
2023-01-21T00:34:54.240Z,95625.3
2023-01-21T00:35:56.777Z,95622.3
2023-01-21T00:36:59.006Z,95625.4
2023-01-21T00:38:01.524Z,95622.2
2023-01-21T00:39:04.032Z,95626.2
2023-01-21T00:40:06.584Z,95622
2023-01-21T00:41:08.623Z,95620.9
2023-01-21T00:42:10.886Z,95621.8
2023-01-21T00:43:13.109Z,95619.6
2023-01-21T00:44:15.599Z,95625.4
2023-01-21T00:45:18.120Z,95630.5
2023-01-21T00:46:20.968Z,95629
2023-01-21T00:47:23.613Z,95632.4
2023-01-21T00:48:26.138Z,95628.3
2023-01-21T00:49:28.451Z,95628.3
2023-01-21T00:50:30.415Z,95631.6
2023-01-21T00:51:32.932Z,95631.9
2023-01-21T00:52:35.181Z,95629.1
2023-01-21T00:53:37.731Z,95633.8
2023-01-21T00:54:40.254Z,95629.9
2023-01-21T00:55:42.977Z,95635
2023-01-21T00:56:46.066Z,95637.4
2023-01-21T00:57:49.193Z,95635
2023-01-21T00:58:52.299Z,95634.8
2023-01-21T00:59:54.419Z,95637
2023-01-21T01:00:56.355Z,95631.7
2023-01-21T01:01:58.299Z,95634.1
2023-01-21T01:03:00.613Z,95641
2023-01-21T01:04:03.238Z,95639.2
2023-01-21T01:05:05.518Z,95644
2023-01-21T01:06:08.081Z,95638.7
2023-01-21T01:07:10.331Z,95640.9
2023-01-21T01:08:12.006Z,95640.8
2023-01-21T01:09:14.225Z,95645.3
2023-01-21T01:10:17.819Z,95641.5
2023-01-21T01:11:20.555Z,95637.5
2023-01-21T01:12:22.562Z,95639.8
2023-01-21T01:13:24.816Z,95642.6
2023-01-21T01:14:27.042Z,95645.2
2023-01-21T01:15:29.573Z,95638.6
2023-01-21T01:16:32.180Z,95640.6
2023-01-21T01:17:34.667Z,95642.9
2023-01-21T01:18:37.184Z,95641.7
2023-01-21T01:19:39.431Z,95641.1
2023-01-21T01:20:42.009Z,95646.3
2023-01-21T01:21:44.283Z,95646.1
2023-01-21T01:22:46.213Z,95648
2023-01-21T01:23:48.430Z,95649.7
2023-01-21T01:24:50.921Z,95651.1
2023-01-21T01:25:53.426Z,95653.4
2023-01-21T01:26:55.957Z,95655
2023-01-21T01:27:58.455Z,95651.9
2023-01-21T01:29:00.954Z,95652.3
2023-01-21T01:30:03.456Z,95651.5
2023-01-21T01:31:06.274Z,95655.1
2023-01-21T01:32:08.676Z,95651.4
2023-01-21T01:33:10.910Z,95653.3
2023-01-21T01:34:13.414Z,95652.6
2023-01-21T01:35:15.921Z,95655.6
2023-01-21T01:36:18.796Z,95656.9
2023-01-21T01:37:21.327Z,95650.6
2023-01-21T01:38:23.905Z,95658.6
2023-01-21T01:39:26.388Z,95653.1
2023-01-21T01:40:28.589Z,95654.8
2023-01-21T01:41:30.831Z,95656.6
2023-01-21T01:42:33.376Z,95652.5
2023-01-21T01:43:35.870Z,95651.2
2023-01-21T01:44:38.366Z,95654.9
2023-01-21T01:45:40.873Z,95654.2
2023-01-21T01:46:43.393Z,95654.2
2023-01-21T01:47:45.700Z,95651
2023-01-21T01:48:47.932Z,95652.6
2023-01-21T01:49:50.153Z,95653.6
2023-01-21T01:50:52.902Z,95654.6
2023-01-21T01:51:55.623Z,95651.5
2023-01-21T01:52:58.176Z,95649.3
2023-01-21T01:54:00.138Z,95652.5
2023-01-21T01:55:02.640Z,95657.8
2023-01-21T01:56:04.894Z,95656.4
2023-01-21T01:57:07.131Z,95653.3
2023-01-21T01:58:09.407Z,95656.3
2023-01-21T01:59:11.919Z,95657.5
2023-01-21T02:00:15.248Z,95655.5
2023-01-21T02:01:18.678Z,95654.8
2023-01-21T02:02:21.012Z,95660.4
2023-01-21T02:03:23.530Z,95653.8
2023-01-21T02:04:26.037Z,95655.1
2023-01-21T02:05:28.545Z,95654.1
2023-01-21T02:06:30.788Z,95653.7
2023-01-21T02:07:33.094Z,95655.1
2023-01-21T02:08:35.634Z,95655.1
2023-01-21T02:09:38.104Z,95654.5
2023-01-21T02:10:40.337Z,95656.8
2023-01-21T02:11:42.827Z,95657.6
2023-01-21T02:12:44.878Z,95654.7
2023-01-21T02:13:47.425Z,95658.2
2023-01-21T02:14:49.999Z,95654.5
2023-01-21T02:15:52.407Z,95658.8
2023-01-21T02:16:55.013Z,95658.3
2023-01-21T02:17:57.571Z,95664.1
2023-01-21T02:19:00.106Z,95661
2023-01-21T02:20:02.355Z,95661.9
2023-01-21T02:21:04.866Z,95660.3
2023-01-21T02:22:07.122Z,95660.8
2023-01-21T02:23:09.693Z,95658.5
2023-01-21T02:24:12.296Z,95659.8
2023-01-21T02:25:14.807Z,95658.3
2023-01-21T02:26:17.021Z,95654
2023-01-21T02:27:24.898Z,95662.6
2023-01-21T02:28:26.064Z,95659
2023-01-21T02:29:28.608Z,95657.4
2023-01-21T02:30:31.349Z,95659.4
2023-01-21T02:31:33.760Z,95657.5
2023-01-21T02:32:35.756Z,95655.4
2023-01-21T02:33:38.284Z,95657
2023-01-21T02:34:40.801Z,95658.6
2023-01-21T02:35:43.033Z,95659.7
2023-01-21T02:36:45.252Z,95658.4
2023-01-21T02:37:47.474Z,95656
2023-01-21T02:38:49.776Z,95660.8
2023-01-21T02:39:52.316Z,95653.2
2023-01-21T02:40:54.831Z,95654.3
2023-01-21T02:41:56.816Z,95654
2023-01-21T02:42:59.355Z,95655.1
2023-01-21T02:44:01.599Z,95657.2
2023-01-21T02:45:04.124Z,95653.9
2023-01-21T02:46:06.607Z,95653.4
2023-01-21T02:47:09.101Z,95656.4
2023-01-21T02:48:11.323Z,95658.9
2023-01-21T02:49:13.854Z,95660.1
2023-01-21T02:50:17.640Z,95663.6
2023-01-21T02:51:20.944Z,95666.2
2023-01-21T02:52:23.252Z,95663.7
2023-01-21T02:53:24.910Z,95663.2
2023-01-21T02:54:27.500Z,95660.5
2023-01-21T02:55:30.065Z,95657.8
2023-01-21T02:56:32.271Z,95659.4
2023-01-21T02:57:34.507Z,95661.7
2023-01-21T02:58:36.482Z,95653.5
2023-01-21T02:59:38.995Z,95660.3
2023-01-21T03:00:41.772Z,95657
2023-01-21T03:01:44.273Z,95658.2
2023-01-21T03:02:46.696Z,95658.6
2023-01-21T03:03:49.209Z,95654.7
2023-01-21T03:04:51.701Z,95655.9
2023-01-21T03:05:53.938Z,95656.3
2023-01-21T03:06:56.456Z,95659
2023-01-21T03:07:58.974Z,95659.7
2023-01-21T03:09:00.938Z,95665.1
2023-01-21T03:10:03.232Z,95660.8
2023-01-21T03:11:05.948Z,95660.8
2023-01-21T03:12:08.196Z,95662.6
2023-01-21T03:13:10.132Z,95659.3
2023-01-21T03:14:12.358Z,95660.6
2023-01-21T03:15:14.316Z,95659.8
2023-01-21T03:16:16.673Z,95662.3
2023-01-21T03:17:19.275Z,95662.2
2023-01-21T03:18:21.774Z,95659.4
2023-01-21T03:19:24.035Z,95656.5
2023-01-21T03:20:26.262Z,95655.9
2023-01-21T03:21:28.789Z,95658.2
2023-01-21T03:22:31.273Z,95654.5
2023-01-21T03:23:33.757Z,95657.5
2023-01-21T03:24:36.257Z,95656
2023-01-21T03:25:38.840Z,95657.8
2023-01-21T03:26:41.447Z,95652.5
2023-01-21T03:27:43.731Z,95655.3
2023-01-21T03:28:45.973Z,95653.9
2023-01-21T03:29:48.498Z,95653.7
2023-01-21T03:30:51.142Z,95651.8
2023-01-21T03:31:54.135Z,95653.6
2023-01-21T03:32:55.897Z,95652
2023-01-21T03:33:58.124Z,95646.3
2023-01-21T03:35:00.348Z,95649.6
2023-01-21T03:36:02.877Z,95650.5
2023-01-21T03:37:05.112Z,95648
2023-01-21T03:38:07.628Z,95651.3
2023-01-21T03:39:10.118Z,95647.5
2023-01-21T03:40:12.610Z,95651.7
2023-01-21T03:41:15.241Z,95648.3
2023-01-21T03:42:17.776Z,95648.6
2023-01-21T03:43:20.270Z,95646.6
2023-01-21T03:44:22.797Z,95645.3
2023-01-21T03:45:25.559Z,95648.7
2023-01-21T03:46:27.287Z,95647.3
2023-01-21T03:47:29.852Z,95642.8
2023-01-21T03:48:32.083Z,95641.8
2023-01-21T03:49:34.352Z,95640.4
2023-01-21T03:50:36.594Z,95641.8
2023-01-21T03:51:39.107Z,95643.3
2023-01-21T03:52:41.331Z,95645.1
2023-01-21T03:53:43.882Z,95644
2023-01-21T03:54:46.384Z,95641.4
2023-01-21T03:55:48.586Z,95639.3
2023-01-21T03:56:51.165Z,95642.1
2023-01-21T03:57:53.779Z,95643.1
2023-01-21T03:58:56.010Z,95642.6
2023-01-21T03:59:58.367Z,95642.8
2023-01-21T04:01:01.194Z,95641.8
2023-01-21T04:02:03.725Z,95635.7
2023-01-21T04:03:06.291Z,95638.3
2023-01-21T04:04:08.535Z,95641
2023-01-21T04:05:10.502Z,95639.3
2023-01-21T04:06:12.775Z,95643
2023-01-21T04:07:14.997Z,95644.1
2023-01-21T04:08:17.214Z,95641.2
2023-01-21T04:09:19.426Z,95641.4
2023-01-21T04:10:21.939Z,95636.9
2023-01-21T04:11:24.191Z,95639.9
2023-01-21T04:12:26.765Z,95643.3
2023-01-21T04:13:29.027Z,95645.2
2023-01-21T04:14:31.288Z,95642.8
2023-01-21T04:15:33.802Z,95645.7
2023-01-21T04:16:36.504Z,95646.4
2023-01-21T04:17:38.831Z,95644.7
2023-01-21T04:18:41.096Z,95645
2023-01-21T04:19:43.672Z,95648.8
2023-01-21T04:20:45.886Z,95648.4
2023-01-21T04:21:47.909Z,95650
2023-01-21T04:22:50.463Z,95648.3
2023-01-21T04:23:52.951Z,95647.9
2023-01-21T04:24:55.467Z,95648.8
2023-01-21T04:25:57.950Z,95645.4
2023-01-21T04:27:00.568Z,95648.4
2023-01-21T04:28:03.170Z,95651.4
2023-01-21T04:29:05.750Z,95649.9
2023-01-21T04:30:08.325Z,95650.4
2023-01-21T04:31:11.055Z,95653.4
2023-01-21T04:32:13.280Z,95648.9
2023-01-21T04:33:15.792Z,95648.8
2023-01-21T04:34:18.570Z,95648.3
2023-01-21T04:35:20.832Z,95646.5
2023-01-21T04:36:23.380Z,95649.3
2023-01-21T04:37:26.137Z,95651.5
2023-01-21T04:38:28.662Z,95646.1
2023-01-21T04:39:31.180Z,95647.4
2023-01-21T04:40:33.653Z,95652
2023-01-21T04:41:36.140Z,95653.3
2023-01-21T04:42:38.624Z,95648.3
2023-01-21T04:43:41.274Z,95649.4
2023-01-21T04:44:43.810Z,95651
2023-01-21T04:45:46.496Z,95651.8
2023-01-21T04:46:49.009Z,95651.5
2023-01-21T04:47:51.237Z,95655.4
2023-01-21T04:48:53.858Z,95656.4
2023-01-21T04:49:56.410Z,95656.4
2023-01-21T04:50:58.993Z,95657.9
2023-01-21T04:52:01.577Z,95660.1
2023-01-21T04:53:04.077Z,95665.5
2023-01-21T04:54:06.305Z,95660.7
2023-01-21T04:55:08.529Z,95662.7
2023-01-21T04:56:11.089Z,95664.6
2023-01-21T04:57:13.673Z,95665.7
2023-01-21T04:58:15.894Z,95663.1
2023-01-21T04:59:18.190Z,95664.2
2023-01-21T05:00:20.613Z,95664.1
2023-01-21T05:01:23.250Z,95662.6
2023-01-21T05:02:26.158Z,95662.7
2023-01-21T05:03:28.494Z,95664.8
2023-01-21T05:04:31.036Z,95670
2023-01-21T05:05:33.303Z,95662.1
2023-01-21T05:06:35.542Z,95667.6
2023-01-21T05:07:38.083Z,95671
2023-01-21T05:08:40.592Z,95674.2
2023-01-21T05:09:42.856Z,95666.1
2023-01-21T05:10:45.359Z,95670.2
2023-01-21T05:11:47.896Z,95671.8
2023-01-21T05:12:50.390Z,95669.8
2023-01-21T05:13:52.673Z,95667.4
2023-01-21T05:14:55.318Z,95672.1
2023-01-21T05:15:57.822Z,95670.1
2023-01-21T05:17:00.798Z,95671.7
2023-01-21T05:18:03.383Z,95671.8
2023-01-21T05:19:05.603Z,95669.9
2023-01-21T05:20:07.549Z,95667.9
2023-01-21T05:21:10.101Z,95670.4
2023-01-21T05:22:12.343Z,95671.8
2023-01-21T05:23:14.851Z,95672.5
2023-01-21T05:24:17.365Z,95673.6
2023-01-21T05:25:19.578Z,95676.1
2023-01-21T05:26:22.281Z,95672.8
2023-01-21T05:27:24.700Z,95673.6
2023-01-21T05:28:27.017Z,95672.9
2023-01-21T05:29:29.283Z,95671.1
2023-01-21T05:30:32.125Z,95671.9
2023-01-21T05:31:35.345Z,95673.5
2023-01-21T05:32:37.719Z,95671.5
2023-01-21T05:33:40.212Z,95672
2023-01-21T05:34:42.847Z,95674.3
2023-01-21T05:35:45.129Z,95669.5
2023-01-21T05:36:47.405Z,95671.6
2023-01-21T05:37:50.024Z,95669.7
2023-01-21T05:38:52.719Z,95669.8
2023-01-21T05:39:55.207Z,95672.4
2023-01-21T05:40:57.744Z,95667.9
2023-01-21T05:42:00.266Z,95670.1
2023-01-21T05:43:02.817Z,95664.1
2023-01-21T05:44:04.560Z,95669.6
2023-01-21T05:45:06.509Z,95670.9
2023-01-21T05:46:09.457Z,95669.3
2023-01-21T05:47:12.172Z,95666.1
2023-01-21T05:48:14.663Z,95662.2
2023-01-21T05:49:17.169Z,95658.1
2023-01-21T05:50:20.309Z,95661.3
2023-01-21T05:51:23.100Z,95663.1
2023-01-21T05:52:25.716Z,95664.7
2023-01-21T05:53:27.990Z,95660.9
2023-01-21T05:54:30.282Z,95662.9
2023-01-21T05:55:32.819Z,95665.2
2023-01-21T05:56:35.303Z,95667.5
2023-01-21T05:57:37.822Z,95666.7
2023-01-21T05:58:40.053Z,95665.8
2023-01-21T05:59:42.295Z,95670.1
2023-01-21T06:00:44.780Z,95671.8
2023-01-21T06:01:47.366Z,95670.7
2023-01-21T06:02:49.899Z,95671.2
2023-01-21T06:03:52.445Z,95669.2
2023-01-21T06:04:54.521Z,95672.1
2023-01-21T06:05:57.019Z,95670.2
2023-01-21T06:06:59.227Z,95672.2
2023-01-21T06:08:01.779Z,95672.6
2023-01-21T06:09:04.358Z,95671.5
2023-01-21T06:10:06.325Z,95675.4
2023-01-21T06:11:08.829Z,95671
2023-01-21T06:12:11.063Z,95677.5
2023-01-21T06:13:13.000Z,95672.2
2023-01-21T06:14:15.484Z,95674.6
2023-01-21T06:15:18.019Z,95676.3
2023-01-21T06:16:20.251Z,95679.5
2023-01-21T06:17:22.857Z,95676.7
2023-01-21T06:18:25.407Z,95677.6
2023-01-21T06:19:27.923Z,95677
2023-01-21T06:20:30.473Z,95679.8
2023-01-21T06:21:32.728Z,95681.4
2023-01-21T06:22:35.221Z,95681.8
2023-01-21T06:23:37.732Z,95679.3
2023-01-21T06:24:40.213Z,95682.5
2023-01-21T06:25:41.887Z,95678.4
2023-01-21T06:26:44.381Z,95685.3
2023-01-21T06:27:46.944Z,95682.6
2023-01-21T06:28:49.545Z,95678.2
2023-01-21T06:29:52.045Z,95682.8
2023-01-21T06:30:55.040Z,95684.5
2023-01-21T06:31:58.303Z,95687.4
2023-01-21T06:33:00.797Z,95690
2023-01-21T06:34:03.370Z,95688
2023-01-21T06:35:05.603Z,95687.6
2023-01-21T06:36:08.139Z,95690.4
2023-01-21T06:37:10.361Z,95690.8
2023-01-21T06:38:13.007Z,95690.3
2023-01-21T06:39:14.953Z,95695.8
2023-01-21T06:40:19.445Z,95692.7
2023-01-21T06:41:22.228Z,95694.9
2023-01-21T06:42:24.777Z,95691.3
2023-01-21T06:43:27.020Z,95692.2
2023-01-21T06:44:29.255Z,95694.3
2023-01-21T06:45:31.483Z,95694.4
2023-01-21T06:46:34.326Z,95697.1
2023-01-21T06:47:36.605Z,95697.5
2023-01-21T06:48:39.241Z,95696.5
2023-01-21T06:49:41.899Z,95699.5
2023-01-21T06:50:44.188Z,95699.7
2023-01-21T06:51:46.805Z,95698.4
2023-01-21T06:52:49.057Z,95699.9
2023-01-21T06:53:51.575Z,95703.9
2023-01-21T06:54:54.237Z,95703.4
2023-01-21T06:55:56.753Z,95701.6
2023-01-21T06:56:58.968Z,95705.3
2023-01-21T06:58:01.534Z,95707.5
2023-01-21T06:59:03.252Z,95714.1
2023-01-21T07:00:06.254Z,95712.6
2023-01-21T07:01:08.773Z,95706.1
2023-01-21T07:02:11.281Z,95710.1
2023-01-21T07:03:13.781Z,95708.7
2023-01-21T07:04:16.419Z,95710
2023-01-21T07:05:19.725Z,95708.4
2023-01-21T07:06:21.974Z,95706.7
2023-01-21T07:07:24.497Z,95705.8
2023-01-21T07:08:26.995Z,95705.8
2023-01-21T07:09:29.518Z,95703.8
2023-01-21T07:10:32.071Z,95703.9
2023-01-21T07:11:34.567Z,95703.8
2023-01-21T07:12:37.129Z,95710.1
2023-01-21T07:13:39.677Z,95713.3
2023-01-21T07:14:42.167Z,95710.7
2023-01-21T07:15:44.859Z,95713.6
2023-01-21T07:16:47.162Z,95714.8
2023-01-21T07:17:49.696Z,95716.3
2023-01-21T07:18:52.286Z,95717.7
2023-01-21T07:19:54.609Z,95719.6
2023-01-21T07:20:56.633Z,95718.8
2023-01-21T07:21:58.585Z,95723.4
2023-01-21T07:23:01.086Z,95729
2023-01-21T07:24:03.389Z,95724.2
2023-01-21T07:25:05.619Z,95727.4
2023-01-21T07:26:08.139Z,95727.9
2023-01-21T07:27:10.392Z,95728.4
2023-01-21T07:28:12.931Z,95723.2
2023-01-21T07:29:15.490Z,95737.3
2023-01-21T07:30:19.457Z,95732.6
2023-01-21T07:31:22.466Z,95737.9
2023-01-21T07:32:25.152Z,95731.9
2023-01-21T07:33:27.395Z,95725.5
2023-01-21T07:34:29.678Z,95732.2
2023-01-21T07:35:32.288Z,95733.5
2023-01-21T07:36:34.268Z,95732.6
2023-01-21T07:37:36.790Z,95733.5
2023-01-21T07:38:38.742Z,95733.2
2023-01-21T07:39:41.249Z,95734.6
2023-01-21T07:40:43.503Z,95732.8
2023-01-21T07:41:45.776Z,95735.1
2023-01-21T07:42:48.022Z,95732.8
2023-01-21T07:43:50.243Z,95736.9
2023-01-21T07:44:52.485Z,95733.5
2023-01-21T07:45:54.997Z,95734.3
2023-01-21T07:46:57.256Z,95734.3
2023-01-21T07:47:59.491Z,95739.3
2023-01-21T07:49:02.063Z,95740.7
2023-01-21T07:50:04.599Z,95739
2023-01-21T07:51:07.385Z,95737.8
2023-01-21T07:52:10.166Z,95736
2023-01-21T07:53:12.740Z,95741
2023-01-21T07:54:14.731Z,95738.6
2023-01-21T07:55:18.687Z,95744.8
2023-01-21T07:56:21.937Z,95741.5
2023-01-21T07:57:24.535Z,95743.2
2023-01-21T07:58:27.079Z,95747
2023-01-21T07:59:29.393Z,95744
2023-01-21T08:00:31.656Z,95745.5
2023-01-21T08:01:33.801Z,95743.4
2023-01-21T08:02:37.139Z,95741.8
2023-01-21T08:03:39.766Z,95742.9
2023-01-21T08:04:42.021Z,95747.7
2023-01-21T08:05:44.288Z,95748.3
2023-01-21T08:06:46.984Z,95746.5
2023-01-21T08:07:49.566Z,95747.9
2023-01-21T08:08:51.808Z,95746.3
2023-01-21T08:09:54.085Z,95750.1
2023-01-21T08:10:56.607Z,95743.1
2023-01-21T08:11:58.834Z,95749.9
2023-01-21T08:13:01.360Z,95750.4
2023-01-21T08:14:03.997Z,95741.5
2023-01-21T08:15:06.534Z,95749
2023-01-21T08:16:09.203Z,95747.2
2023-01-21T08:17:11.824Z,95748.6
2023-01-21T08:18:14.336Z,95746.5
2023-01-21T08:19:16.909Z,95748.9
2023-01-21T08:20:19.489Z,95748.9
2023-01-21T08:21:22.027Z,95742.9
2023-01-21T08:22:24.217Z,95745.3
2023-01-21T08:23:26.871Z,95746
2023-01-21T08:24:29.520Z,95745.3
2023-01-21T08:25:32.040Z,95746
2023-01-21T08:26:34.018Z,95751.6
2023-01-21T08:27:36.522Z,95750.2
2023-01-21T08:28:38.845Z,95744.3
2023-01-21T08:29:41.332Z,95747.6
2023-01-21T08:30:43.738Z,95750.6
2023-01-21T08:31:46.124Z,95749.5
2023-01-21T08:32:48.770Z,95752.2
2023-01-21T08:33:51.307Z,95752.1
2023-01-21T08:34:53.863Z,95751.3
2023-01-21T08:35:56.077Z,95751.2
2023-01-21T08:36:58.295Z,95754
2023-01-21T08:38:00.987Z,95748.1
2023-01-21T08:39:03.182Z,95753.9
2023-01-21T08:40:05.703Z,95751.2
2023-01-21T08:41:07.925Z,95748.5
2023-01-21T08:42:10.175Z,95753.2
2023-01-21T08:43:12.717Z,95753.6
2023-01-21T08:44:15.264Z,95755.7
2023-01-21T08:45:19.414Z,95757.2
2023-01-21T08:46:22.218Z,95757.1
2023-01-21T08:47:24.947Z,95760
2023-01-21T08:48:26.995Z,95756.7
2023-01-21T08:49:29.791Z,95760.5
2023-01-21T08:50:32.942Z,95763
2023-01-21T08:51:35.186Z,95756.2
2023-01-21T08:52:37.694Z,95756.1
2023-01-21T08:53:40.283Z,95760.8
2023-01-21T08:54:42.873Z,95763.3
2023-01-21T08:55:44.825Z,95760.2
2023-01-21T08:56:47.352Z,95760.8
2023-01-21T08:57:49.360Z,95762.9
2023-01-21T08:58:51.559Z,95761.7
2023-01-21T08:59:53.836Z,95767.7
2023-01-21T09:00:56.592Z,95764.7
2023-01-21T09:01:59.425Z,95771
2023-01-21T09:03:02.053Z,95768.1
2023-01-21T09:04:04.355Z,95763.1
2023-01-21T09:05:06.293Z,95763.9
2023-01-21T09:06:08.825Z,95765.1
2023-01-21T09:07:11.333Z,95765.9
2023-01-21T09:08:13.308Z,95770.2
2023-01-21T09:09:15.907Z,95766.8
2023-01-21T09:10:18.147Z,95770.9
2023-01-21T09:11:20.086Z,95774.6
2023-01-21T09:12:22.608Z,95773.3
2023-01-21T09:13:25.765Z,95774.2
2023-01-21T09:14:33.400Z,95777.6
2023-01-21T09:15:35.934Z,95775.6
2023-01-21T09:16:39.025Z,95778.6
2023-01-21T09:17:41.635Z,95771.8
2023-01-21T09:18:44.158Z,95772.3
2023-01-21T09:19:46.648Z,95771.5
2023-01-21T09:20:49.159Z,95767.8
2023-01-21T09:21:51.667Z,95770.2
2023-01-21T09:22:54.173Z,95768.7
2023-01-21T09:23:56.421Z,95773
2023-01-21T09:24:58.716Z,95770.9
2023-01-21T09:26:01.267Z,95774
2023-01-21T09:27:03.750Z,95773.4
2023-01-21T09:28:05.703Z,95770.5
2023-01-21T09:29:08.439Z,95770.1
2023-01-21T09:30:10.945Z,95769.7
2023-01-21T09:31:13.196Z,95773.7
2023-01-21T09:32:15.716Z,95772
2023-01-21T09:33:18.216Z,95772.4
2023-01-21T09:34:20.732Z,95775.8
2023-01-21T09:35:22.946Z,95778.4
2023-01-21T09:36:25.451Z,95775.3
2023-01-21T09:37:27.957Z,95776.4
2023-01-21T09:38:30.476Z,95770.7
2023-01-21T09:39:33.130Z,95770.8
2023-01-21T09:40:35.686Z,95767.6
2023-01-21T09:41:37.977Z,95768.9
2023-01-21T09:42:40.468Z,95765.5
2023-01-21T09:43:43.053Z,95772.8
2023-01-21T09:44:45.688Z,95769.9
2023-01-21T09:45:48.128Z,95771.6
2023-01-21T09:46:50.758Z,95773.7
2023-01-21T09:47:53.024Z,95771.3
2023-01-21T09:48:55.517Z,95774.6
2023-01-21T09:49:58.025Z,95767.4
2023-01-21T09:51:00.804Z,95767.5
2023-01-21T09:52:03.442Z,95775.2
2023-01-21T09:53:05.671Z,95769.4
2023-01-21T09:54:08.175Z,95769.7
2023-01-21T09:55:10.682Z,95772.1
2023-01-21T09:56:13.292Z,95770
2023-01-21T09:57:15.841Z,95772.3
2023-01-21T09:58:18.355Z,95771
2023-01-21T09:59:22.307Z,95773.7
2023-01-21T10:00:24.286Z,95776.8
2023-01-21T10:01:27.250Z,95771.5
2023-01-21T10:02:29.845Z,95773.4
2023-01-21T10:03:32.136Z,95769.2
2023-01-21T10:04:35.053Z,95767.4
2023-01-21T10:05:37.387Z,95776.5
2023-01-21T10:06:39.339Z,95772.2
2023-01-21T10:07:41.858Z,95772.6
2023-01-21T10:08:44.080Z,95771.2
2023-01-21T10:09:46.639Z,95767.3
2023-01-21T10:10:49.143Z,95766.3
2023-01-21T10:11:51.482Z,95765.8
2023-01-21T10:12:54.003Z,95765.5
2023-01-21T10:13:55.928Z,95767.5
2023-01-21T10:14:58.211Z,95766.3
2023-01-21T10:16:00.721Z,95756.9
2023-01-21T10:17:03.037Z,95762.6
2023-01-21T10:18:05.594Z,95759.7
2023-01-21T10:19:08.100Z,95759
2023-01-21T10:20:10.344Z,95762.8
2023-01-21T10:21:12.879Z,95759.9
2023-01-21T10:22:15.117Z,95756.7
2023-01-21T10:23:17.364Z,95759.4
2023-01-21T10:24:19.869Z,95759.3
2023-01-21T10:25:22.392Z,95757.2
2023-01-21T10:26:24.918Z,95755.7
2023-01-21T10:27:27.037Z,95750
2023-01-21T10:28:29.572Z,95757.5
2023-01-21T10:29:32.095Z,95757.9
2023-01-21T10:30:34.970Z,95757.7
2023-01-21T10:31:38.484Z,95758
2023-01-21T10:32:40.730Z,95757.3
2023-01-21T10:33:43.013Z,95758
2023-01-21T10:34:45.523Z,95758.3
2023-01-21T10:35:48.030Z,95761.4
2023-01-21T10:36:50.275Z,95763.2
2023-01-21T10:37:52.513Z,95757.5
2023-01-21T10:38:55.038Z,95760.6
2023-01-21T10:39:57.552Z,95760.8
2023-01-21T10:41:00.078Z,95764.1
2023-01-21T10:42:02.617Z,95759.2
2023-01-21T10:43:04.947Z,95758
2023-01-21T10:44:07.217Z,95757.2
2023-01-21T10:45:09.532Z,95755.6
2023-01-21T10:46:12.345Z,95753.7
2023-01-21T10:47:14.952Z,95755.2
2023-01-21T10:48:17.467Z,95751.2
2023-01-21T10:49:19.706Z,95754.2
2023-01-21T10:50:21.639Z,95755.7
2023-01-21T10:51:23.516Z,95755.2
2023-01-21T10:52:25.748Z,95761.6
2023-01-21T10:53:27.960Z,95755.5
2023-01-21T10:54:30.457Z,95754.7
2023-01-21T10:55:32.695Z,95750
2023-01-21T10:56:34.934Z,95749.6
2023-01-21T10:57:37.448Z,95749.1
2023-01-21T10:58:39.778Z,95748.3
2023-01-21T10:59:42.080Z,95750.9
2023-01-21T11:00:44.069Z,95746.8
2023-01-21T11:01:46.387Z,95748.9
2023-01-21T11:02:48.929Z,95749.9
2023-01-21T11:03:50.934Z,95747.5
2023-01-21T11:04:53.500Z,95746.5
2023-01-21T11:05:56.000Z,95746.8
2023-01-21T11:06:57.664Z,95748.2
2023-01-21T11:08:00.655Z,95744.4
2023-01-21T11:09:03.718Z,95743.5
2023-01-21T11:10:06.888Z,95742.1
2023-01-21T11:11:09.319Z,95745.6
2023-01-21T11:12:11.866Z,95741.3
2023-01-21T11:13:14.397Z,95741.7
2023-01-21T11:14:18.868Z,95742.1
2023-01-21T11:15:23.607Z,95735.4
2023-01-21T11:16:26.202Z,95739.6
2023-01-21T11:17:28.706Z,95738.6
2023-01-21T11:18:30.978Z,95737.7
2023-01-21T11:19:32.977Z,95740.6
2023-01-21T11:20:35.528Z,95738
2023-01-21T11:21:38.072Z,95740.6
2023-01-21T11:22:40.309Z,95740.4
2023-01-21T11:23:42.843Z,95737.9
2023-01-21T11:24:44.526Z,95738.3
2023-01-21T11:25:47.051Z,95734
2023-01-21T11:26:49.569Z,95739.2
2023-01-21T11:27:52.086Z,95736.3
2023-01-21T11:28:54.317Z,95738.5
2023-01-21T11:29:56.617Z,95735
2023-01-21T11:30:59.987Z,95732.7
2023-01-21T11:32:03.135Z,95733.2
2023-01-21T11:33:05.614Z,95732.3
2023-01-21T11:34:08.144Z,95730.8
2023-01-21T11:35:11.792Z,95731.2
2023-01-21T11:36:14.336Z,95734
2023-01-21T11:37:16.573Z,95728.3
2023-01-21T11:38:19.069Z,95726.6
2023-01-21T11:39:21.280Z,95728.1
2023-01-21T11:40:25.475Z,95727.3
2023-01-21T11:41:28.057Z,95724.5
2023-01-21T11:42:30.286Z,95724.1
2023-01-21T11:43:32.512Z,95723.4
2023-01-21T11:44:35.039Z,95725.2
2023-01-21T11:45:37.397Z,95724.9
2023-01-21T11:46:39.960Z,95723.4
2023-01-21T11:47:42.532Z,95716.3
2023-01-21T11:48:44.531Z,95713.9
2023-01-21T11:49:46.740Z,95719
2023-01-21T11:50:49.475Z,95719.6
2023-01-21T11:51:52.174Z,95720.7
2023-01-21T11:52:54.689Z,95718.4
2023-01-21T11:53:57.185Z,95715
2023-01-21T11:54:59.738Z,95714.3
2023-01-21T11:56:02.018Z,95712
2023-01-21T11:57:04.631Z,95712.8
2023-01-21T11:58:06.876Z,95714.8
2023-01-21T11:59:09.122Z,95712.4
2023-01-21T12:00:11.091Z,95710.3
2023-01-21T12:01:13.707Z,95719.2
2023-01-21T12:02:16.436Z,95708.9
2023-01-21T12:03:18.777Z,95710.4
2023-01-21T12:04:21.002Z,95707
2023-01-21T12:05:23.498Z,95708.3
2023-01-21T12:06:26.015Z,95705.7
2023-01-21T12:07:28.573Z,95706.3
2023-01-21T12:08:30.788Z,95703.2
2023-01-21T12:09:33.310Z,95703.7
2023-01-21T12:10:35.821Z,95707.1
2023-01-21T12:11:38.364Z,95704.3
2023-01-21T12:12:40.312Z,95704.6
2023-01-21T12:13:42.807Z,95707.6
2023-01-21T12:14:45.337Z,95702.9
2023-01-21T12:15:48.091Z,95703.5
2023-01-21T12:16:50.762Z,95706
2023-01-21T12:17:53.270Z,95706.6
2023-01-21T12:18:55.270Z,95702.3
2023-01-21T12:19:57.906Z,95701.1
2023-01-21T12:21:00.478Z,95698.5
2023-01-21T12:22:02.793Z,95694
2023-01-21T12:23:05.107Z,95697.2
2023-01-21T12:24:07.673Z,95692.7
2023-01-21T12:25:09.995Z,95691.1
2023-01-21T12:26:12.584Z,95697.5
2023-01-21T12:27:14.830Z,95695.1
2023-01-21T12:28:17.375Z,95692.9
2023-01-21T12:29:21.885Z,95693.8
2023-01-21T12:30:24.421Z,95697.8
2023-01-21T12:31:27.316Z,95693
2023-01-21T12:32:30.000Z,95692.9
2023-01-21T12:33:32.558Z,95693.4
2023-01-21T12:34:34.858Z,95692.6
2023-01-21T12:35:37.100Z,95691.7
2023-01-21T12:36:39.602Z,95687.7
2023-01-21T12:37:42.159Z,95692.4
2023-01-21T12:38:44.416Z,95688
2023-01-21T12:39:46.626Z,95690
2023-01-21T12:40:48.611Z,95690.8